sensor_id;sensor_type;location;lat;lon;timestamp;temperature;humidity
9837;DHT22;4957;51.412;6.724;2023-03-01T00:00:46;0.90;85.20
9837;DHT22;4957;51.412;6.724;2023-03-01T00:03:12;0.90;85.40
9837;DHT22;4957;51.412;6.724;2023-03-01T00:05:44;0.90;85.40
9837;DHT22;4957;51.412;6.724;2023-03-01T00:08:09;0.90;85.40
9837;DHT22;4957;51.412;6.724;2023-03-01T00:10:35;0.90;85.70
9837;DHT22;4957;51.412;6.724;2023-03-01T00:13:01;0.80;85.70
9837;DHT22;4957;51.412;6.724;2023-03-01T00:15:26;0.80;85.70
9837;DHT22;4957;51.412;6.724;2023-03-01T00:17:52;0.80;85.90
9837;DHT22;4957;51.412;6.724;2023-03-01T00:20:18;0.80;86.00
9837;DHT22;4957;51.412;6.724;2023-03-01T00:22:43;0.80;86.20
9837;DHT22;4957;51.412;6.724;2023-03-01T00:25:09;0.80;86.40
9837;DHT22;4957;51.412;6.724;2023-03-01T00:27:35;0.70;86.30
9837;DHT22;4957;51.412;6.724;2023-03-01T00:30:00;0.70;86.60
9837;DHT22;4957;51.412;6.724;2023-03-01T00:32:26;0.70;86.60
9837;DHT22;4957;51.412;6.724;2023-03-01T00:34:52;0.70;86.60
9837;DHT22;4957;51.412;6.724;2023-03-01T00:37:23;0.70;86.60
9837;DHT22;4957;51.412;6.724;2023-03-01T00:39:49;0.70;86.60
9837;DHT22;4957;51.412;6.724;2023-03-01T00:42:16;0.60;86.50
9837;DHT22;4957;51.412;6.724;2023-03-01T00:44:42;0.60;86.50
9837;DHT22;4957;51.412;6.724;2023-03-01T00:47:07;0.60;86.90
9837;DHT22;4957;51.412;6.724;2023-03-01T00:49:33;0.60;87.00
9837;DHT22;4957;51.412;6.724;2023-03-01T00:51:59;0.50;87.00
9837;DHT22;4957;51.412;6.724;2023-03-01T00:54:24;0.60;87.30
9837;DHT22;4957;51.412;6.724;2023-03-01T00:56:50;0.50;87.40
9837;DHT22;4957;51.412;6.724;2023-03-01T00:59:16;0.50;87.50
9837;DHT22;4957;51.412;6.724;2023-03-01T01:01:41;0.50;87.80
9837;DHT22;4957;51.412;6.724;2023-03-01T01:04:10;0.40;87.90
9837;DHT22;4957;51.412;6.724;2023-03-01T01:06:38;0.40;87.90
9837;DHT22;4957;51.412;6.724;2023-03-01T01:09:06;0.40;88.80
9837;DHT22;4957;51.412;6.724;2023-03-01T01:11:32;0.40;88.10
9837;DHT22;4957;51.412;6.724;2023-03-01T01:14:00;0.40;88.20
9837;DHT22;4957;51.412;6.724;2023-03-01T01:16:27;0.40;88.40
9837;DHT22;4957;51.412;6.724;2023-03-01T01:18:53;0.30;88.40
9837;DHT22;4957;51.412;6.724;2023-03-01T01:21:22;0.30;88.60
9837;DHT22;4957;51.412;6.724;2023-03-01T01:23:48;0.30;88.70
9837;DHT22;4957;51.412;6.724;2023-03-01T01:26:17;0.30;88.80
9837;DHT22;4957;51.412;6.724;2023-03-01T01:28:43;0.30;88.80
9837;DHT22;4957;51.412;6.724;2023-03-01T01:31:15;0.30;89.00
9837;DHT22;4957;51.412;6.724;2023-03-01T01:33:41;0.30;88.90
9837;DHT22;4957;51.412;6.724;2023-03-01T01:36:08;0.20;88.90
9837;DHT22;4957;51.412;6.724;2023-03-01T01:38:35;0.20;88.90
9837;DHT22;4957;51.412;6.724;2023-03-01T01:41:02;0.20;88.90
9837;DHT22;4957;51.412;6.724;2023-03-01T01:43:34;0.20;89.10
9837;DHT22;4957;51.412;6.724;2023-03-01T01:46:21;0.10;89.10
9837;DHT22;4957;51.412;6.724;2023-03-01T01:48:54;0.10;89.30
9837;DHT22;4957;51.412;6.724;2023-03-01T01:51:24;0.20;89.50
9837;DHT22;4957;51.412;6.724;2023-03-01T01:53:54;0.10;89.40
9837;DHT22;4957;51.412;6.724;2023-03-01T01:56:24;0.10;89.50
9837;DHT22;4957;51.412;6.724;2023-03-01T01:58:51;0.10;89.60
9837;DHT22;4957;51.412;6.724;2023-03-01T02:01:17;0.10;89.80
9837;DHT22;4957;51.412;6.724;2023-03-01T02:03:44;0.10;89.90
9837;DHT22;4957;51.412;6.724;2023-03-01T02:06:38;0.10;90.00
9837;DHT22;4957;51.412;6.724;2023-03-01T02:09:09;0.10;90.10
9837;DHT22;4957;51.412;6.724;2023-03-01T02:11:36;0.10;90.20
9837;DHT22;4957;51.412;6.724;2023-03-01T02:14:03;0.00;90.10
9837;DHT22;4957;51.412;6.724;2023-03-01T02:16:29;0.00;90.10
9837;DHT22;4957;51.412;6.724;2023-03-01T02:18:56;0.00;90.10
9837;DHT22;4957;51.412;6.724;2023-03-01T02:21:49;0.00;90.20
9837;DHT22;4957;51.412;6.724;2023-03-01T02:24:43;-0.10;90.20
9837;DHT22;4957;51.412;6.724;2023-03-01T02:27:12;-0.10;90.30
9837;DHT22;4957;51.412;6.724;2023-03-01T02:29:38;-0.10;90.40
9837;DHT22;4957;51.412;6.724;2023-03-01T02:32:04;-0.10;90.40
9837;DHT22;4957;51.412;6.724;2023-03-01T02:34:31;-0.10;90.30
9837;DHT22;4957;51.412;6.724;2023-03-01T02:37:08;-0.10;90.30
9837;DHT22;4957;51.412;6.724;2023-03-01T02:39:39;-0.20;90.30
9837;DHT22;4957;51.412;6.724;2023-03-01T02:42:13;-0.20;90.30
9837;DHT22;4957;51.412;6.724;2023-03-01T02:44:40;-0.20;90.40
9837;DHT22;4957;51.412;6.724;2023-03-01T02:47:05;-0.20;90.40
9837;DHT22;4957;51.412;6.724;2023-03-01T02:49:34;-0.20;90.40
9837;DHT22;4957;51.412;6.724;2023-03-01T02:52:21;-0.30;90.40
9837;DHT22;4957;51.412;6.724;2023-03-01T02:54:59;-0.30;90.40
9837;DHT22;4957;51.412;6.724;2023-03-01T02:57:28;-0.30;90.50
9837;DHT22;4957;51.412;6.724;2023-03-01T02:59:59;-0.30;90.50
9837;DHT22;4957;51.412;6.724;2023-03-01T03:02:29;-0.30;90.40
9837;DHT22;4957;51.412;6.724;2023-03-01T03:05:16;-0.30;90.50
9837;DHT22;4957;51.412;6.724;2023-03-01T03:07:43;-0.30;90.50
9837;DHT22;4957;51.412;6.724;2023-03-01T03:10:13;-0.30;90.50
9837;DHT22;4957;51.412;6.724;2023-03-01T03:12:40;-0.30;90.50
9837;DHT22;4957;51.412;6.724;2023-03-01T03:15:08;-0.40;90.50
9837;DHT22;4957;51.412;6.724;2023-03-01T03:17:38;-0.40;90.50
9837;DHT22;4957;51.412;6.724;2023-03-01T03:20:05;-0.50;90.60
9837;DHT22;4957;51.412;6.724;2023-03-01T03:22:32;-0.50;90.70
9837;DHT22;4957;51.412;6.724;2023-03-01T03:24:59;-0.50;90.70
9837;DHT22;4957;51.412;6.724;2023-03-01T03:27:25;-0.50;90.70
9837;DHT22;4957;51.412;6.724;2023-03-01T03:29:51;-0.50;90.80
9837;DHT22;4957;51.412;6.724;2023-03-01T03:32:16;-0.50;90.80
9837;DHT22;4957;51.412;6.724;2023-03-01T03:34:42;-0.50;90.90
9837;DHT22;4957;51.412;6.724;2023-03-01T03:37:07;-0.60;90.90
9837;DHT22;4957;51.412;6.724;2023-03-01T03:39:53;-0.60;90.90
9837;DHT22;4957;51.412;6.724;2023-03-01T03:42:20;-0.60;91.00
9837;DHT22;4957;51.412;6.724;2023-03-01T03:44:47;-0.60;91.00
9837;DHT22;4957;51.412;6.724;2023-03-01T03:47:13;-0.60;91.10
9837;DHT22;4957;51.412;6.724;2023-03-01T03:49:39;-0.60;91.20
9837;DHT22;4957;51.412;6.724;2023-03-01T03:52:05;-0.60;91.20
9837;DHT22;4957;51.412;6.724;2023-03-01T03:54:40;-0.70;91.20
9837;DHT22;4957;51.412;6.724;2023-03-01T03:57:06;-0.70;91.30
9837;DHT22;4957;51.412;6.724;2023-03-01T03:59:32;-0.70;91.30
9837;DHT22;4957;51.412;6.724;2023-03-01T04:01:57;-0.70;91.50
9837;DHT22;4957;51.412;6.724;2023-03-01T04:04:23;-0.70;91.50
9837;DHT22;4957;51.412;6.724;2023-03-01T04:06:49;-0.70;91.50
9837;DHT22;4957;51.412;6.724;2023-03-01T04:09:14;-0.70;91.60
9837;DHT22;4957;51.412;6.724;2023-03-01T04:11:40;-0.70;91.70
9837;DHT22;4957;51.412;6.724;2023-03-01T04:14:05;-0.70;91.80
9837;DHT22;4957;51.412;6.724;2023-03-01T04:16:31;-0.70;91.80
9837;DHT22;4957;51.412;6.724;2023-03-01T04:18:57;-0.70;91.80
9837;DHT22;4957;51.412;6.724;2023-03-01T04:21:25;-0.70;91.80
9837;DHT22;4957;51.412;6.724;2023-03-01T04:23:51;-0.70;91.80
9837;DHT22;4957;51.412;6.724;2023-03-01T04:26:18;-0.70;91.90
9837;DHT22;4957;51.412;6.724;2023-03-01T04:28:44;-0.70;91.90
9837;DHT22;4957;51.412;6.724;2023-03-01T04:31:16;-0.70;92.00
9837;DHT22;4957;51.412;6.724;2023-03-01T04:33:49;-0.70;92.10
9837;DHT22;4957;51.412;6.724;2023-03-01T04:36:17;-0.80;92.00
9837;DHT22;4957;51.412;6.724;2023-03-01T04:38:44;-0.70;92.10
9837;DHT22;4957;51.412;6.724;2023-03-01T04:41:13;-0.80;92.10
9837;DHT22;4957;51.412;6.724;2023-03-01T04:43:39;-0.80;92.10
9837;DHT22;4957;51.412;6.724;2023-03-01T04:46:07;-0.80;92.10
9837;DHT22;4957;51.412;6.724;2023-03-01T04:48:38;-0.80;92.20
9837;DHT22;4957;51.412;6.724;2023-03-01T04:51:05;-0.80;92.10
9837;DHT22;4957;51.412;6.724;2023-03-01T04:53:32;-0.80;92.50
9837;DHT22;4957;51.412;6.724;2023-03-01T04:55:58;-0.80;92.20
9837;DHT22;4957;51.412;6.724;2023-03-01T04:58:26;-0.80;92.30
9837;DHT22;4957;51.412;6.724;2023-03-01T05:00:53;-0.90;92.30
9837;DHT22;4957;51.412;6.724;2023-03-01T05:03:19;-0.90;92.30
9837;DHT22;4957;51.412;6.724;2023-03-01T05:05:47;-0.90;92.30
9837;DHT22;4957;51.412;6.724;2023-03-01T05:08:13;-0.90;92.30
9837;DHT22;4957;51.412;6.724;2023-03-01T05:10:53;-0.90;92.30
9837;DHT22;4957;51.412;6.724;2023-03-01T05:13:20;-0.90;92.30
9837;DHT22;4957;51.412;6.724;2023-03-01T05:15:58;-0.90;92.40
9837;DHT22;4957;51.412;6.724;2023-03-01T05:18:25;-0.90;92.40
9837;DHT22;4957;51.412;6.724;2023-03-01T05:21:07;-0.90;92.40
9837;DHT22;4957;51.412;6.724;2023-03-01T05:23:34;-1.00;92.40
9837;DHT22;4957;51.412;6.724;2023-03-01T05:26:00;-1.00;92.50
9837;DHT22;4957;51.412;6.724;2023-03-01T05:28:27;-1.00;92.50
9837;DHT22;4957;51.412;6.724;2023-03-01T05:30:54;-1.00;92.60
9837;DHT22;4957;51.412;6.724;2023-03-01T05:33:19;-1.00;92.60
9837;DHT22;4957;51.412;6.724;2023-03-01T05:35:47;-1.00;92.60
9837;DHT22;4957;51.412;6.724;2023-03-01T05:38:14;-1.00;92.60
9837;DHT22;4957;51.412;6.724;2023-03-01T05:40:42;-1.10;92.60
9837;DHT22;4957;51.412;6.724;2023-03-01T05:43:08;-1.10;92.60
9837;DHT22;4957;51.412;6.724;2023-03-01T05:45:36;-1.10;92.60
9837;DHT22;4957;51.412;6.724;2023-03-01T05:48:02;-1.10;92.60
9837;DHT22;4957;51.412;6.724;2023-03-01T05:50:30;-1.10;92.70
9837;DHT22;4957;51.412;6.724;2023-03-01T05:53:07;-1.10;92.70
9837;DHT22;4957;51.412;6.724;2023-03-01T05:55:34;-1.10;92.80
9837;DHT22;4957;51.412;6.724;2023-03-01T05:58:05;-1.10;92.90
9837;DHT22;4957;51.412;6.724;2023-03-01T06:00:31;-1.10;93.00
9837;DHT22;4957;51.412;6.724;2023-03-01T06:02:58;-1.10;93.00
9837;DHT22;4957;51.412;6.724;2023-03-01T06:05:24;-1.10;93.00
9837;DHT22;4957;51.412;6.724;2023-03-01T06:07:50;-1.20;93.00
9837;DHT22;4957;51.412;6.724;2023-03-01T06:10:17;-1.20;93.00
9837;DHT22;4957;51.412;6.724;2023-03-01T06:12:43;-1.20;93.10
9837;DHT22;4957;51.412;6.724;2023-03-01T06:15:11;-1.20;93.10
9837;DHT22;4957;51.412;6.724;2023-03-01T06:17:38;-1.20;93.20
9837;DHT22;4957;51.412;6.724;2023-03-01T06:20:08;-1.20;93.20
9837;DHT22;4957;51.412;6.724;2023-03-01T06:22:34;-1.20;93.60
9837;DHT22;4957;51.412;6.724;2023-03-01T06:25:00;-1.20;93.40
9837;DHT22;4957;51.412;6.724;2023-03-01T06:27:25;-1.20;93.50
9837;DHT22;4957;51.412;6.724;2023-03-01T06:29:52;-1.20;93.50
9837;DHT22;4957;51.412;6.724;2023-03-01T06:32:18;-1.20;93.50
9837;DHT22;4957;51.412;6.724;2023-03-01T06:34:43;-1.20;93.60
9837;DHT22;4957;51.412;6.724;2023-03-01T06:37:09;-1.20;93.70
9837;DHT22;4957;51.412;6.724;2023-03-01T06:39:35;-1.20;93.70
9837;DHT22;4957;51.412;6.724;2023-03-01T06:42:02;-1.20;93.70
9837;DHT22;4957;51.412;6.724;2023-03-01T06:44:28;-1.20;93.70
9837;DHT22;4957;51.412;6.724;2023-03-01T06:46:54;-1.20;93.80
9837;DHT22;4957;51.412;6.724;2023-03-01T06:49:19;-1.20;93.80
9837;DHT22;4957;51.412;6.724;2023-03-01T06:51:45;-1.20;93.90
9837;DHT22;4957;51.412;6.724;2023-03-01T06:54:11;-1.20;93.90
9837;DHT22;4957;51.412;6.724;2023-03-01T06:56:37;-1.20;93.90
9837;DHT22;4957;51.412;6.724;2023-03-01T06:59:03;-1.20;93.90
9837;DHT22;4957;51.412;6.724;2023-03-01T07:01:29;-1.10;94.10
9837;DHT22;4957;51.412;6.724;2023-03-01T07:03:55;-1.20;94.10
9837;DHT22;4957;51.412;6.724;2023-03-01T07:06:21;-1.10;94.20
9837;DHT22;4957;51.412;6.724;2023-03-01T07:08:47;-1.10;94.20
9837;DHT22;4957;51.412;6.724;2023-03-01T07:11:13;-1.10;94.30
9837;DHT22;4957;51.412;6.724;2023-03-01T07:13:39;-1.00;94.50
9837;DHT22;4957;51.412;6.724;2023-03-01T07:16:06;-1.00;94.70
9837;DHT22;4957;51.412;6.724;2023-03-01T07:18:32;-0.90;94.80
9837;DHT22;4957;51.412;6.724;2023-03-01T07:20:57;-0.80;95.40
9837;DHT22;4957;51.412;6.724;2023-03-01T07:23:23;-0.70;95.20
9837;DHT22;4957;51.412;6.724;2023-03-01T07:25:55;-0.80;95.30
9837;DHT22;4957;51.412;6.724;2023-03-01T07:28:23;-0.70;95.50
9837;DHT22;4957;51.412;6.724;2023-03-01T07:30:50;-0.60;95.80
9837;DHT22;4957;51.412;6.724;2023-03-01T07:33:18;-0.50;95.90
9837;DHT22;4957;51.412;6.724;2023-03-01T07:35:44;-0.50;96.00
9837;DHT22;4957;51.412;6.724;2023-03-01T07:38:09;-0.40;96.00
9837;DHT22;4957;51.412;6.724;2023-03-01T07:40:36;-0.40;96.20
9837;DHT22;4957;51.412;6.724;2023-03-01T07:43:02;-0.30;96.10
9837;DHT22;4957;51.412;6.724;2023-03-01T07:45:28;-0.30;96.10
9837;DHT22;4957;51.412;6.724;2023-03-01T07:47:55;-0.20;96.10
9837;DHT22;4957;51.412;6.724;2023-03-01T07:50:21;-0.20;96.20
9837;DHT22;4957;51.412;6.724;2023-03-01T07:52:47;-0.10;96.20
9837;DHT22;4957;51.412;6.724;2023-03-01T07:55:14;-0.10;96.10
9837;DHT22;4957;51.412;6.724;2023-03-01T07:57:40;-0.10;96.20
9837;DHT22;4957;51.412;6.724;2023-03-01T08:00:06;0.00;96.20
9837;DHT22;4957;51.412;6.724;2023-03-01T08:02:32;0.10;96.40
9837;DHT22;4957;51.412;6.724;2023-03-01T08:04:58;0.20;96.40
9837;DHT22;4957;51.412;6.724;2023-03-01T08:07:24;0.30;96.30
9837;DHT22;4957;51.412;6.724;2023-03-01T08:09:49;0.30;96.20
9837;DHT22;4957;51.412;6.724;2023-03-01T08:12:15;0.30;96.20
9837;DHT22;4957;51.412;6.724;2023-03-01T08:14:42;0.40;96.20
9837;DHT22;4957;51.412;6.724;2023-03-01T08:17:08;0.40;96.10
9837;DHT22;4957;51.412;6.724;2023-03-01T08:19:34;0.50;96.10
9837;DHT22;4957;51.412;6.724;2023-03-01T08:22:02;0.50;96.00
9837;DHT22;4957;51.412;6.724;2023-03-01T08:24:28;0.60;96.00
9837;DHT22;4957;51.412;6.724;2023-03-01T08:26:54;0.60;95.90
9837;DHT22;4957;51.412;6.724;2023-03-01T08:29:20;0.60;95.80
9837;DHT22;4957;51.412;6.724;2023-03-01T08:31:45;0.70;95.90
9837;DHT22;4957;51.412;6.724;2023-03-01T08:34:13;0.80;95.80
9837;DHT22;4957;51.412;6.724;2023-03-01T08:36:41;0.80;95.70
9837;DHT22;4957;51.412;6.724;2023-03-01T08:39:09;0.90;95.70
9837;DHT22;4957;51.412;6.724;2023-03-01T08:41:35;0.90;95.60
9837;DHT22;4957;51.412;6.724;2023-03-01T08:44:00;1.00;95.60
9837;DHT22;4957;51.412;6.724;2023-03-01T08:46:39;1.00;95.50
9837;DHT22;4957;51.412;6.724;2023-03-01T08:49:14;1.10;95.50
9837;DHT22;4957;51.412;6.724;2023-03-01T08:51:40;1.10;95.50
9837;DHT22;4957;51.412;6.724;2023-03-01T08:54:26;1.20;95.40
9837;DHT22;4957;51.412;6.724;2023-03-01T08:56:51;1.20;95.30
9837;DHT22;4957;51.412;6.724;2023-03-01T08:59:17;1.30;95.30
9837;DHT22;4957;51.412;6.724;2023-03-01T09:01:43;1.40;95.30
9837;DHT22;4957;51.412;6.724;2023-03-01T09:04:10;1.40;95.20
9837;DHT22;4957;51.412;6.724;2023-03-01T09:06:36;1.50;95.20
9837;DHT22;4957;51.412;6.724;2023-03-01T09:09:03;1.50;95.10
9837;DHT22;4957;51.412;6.724;2023-03-01T09:11:29;1.60;95.00
9837;DHT22;4957;51.412;6.724;2023-03-01T09:13:55;1.70;95.00
9837;DHT22;4957;51.412;6.724;2023-03-01T09:16:22;1.80;94.90
9837;DHT22;4957;51.412;6.724;2023-03-01T09:18:52;1.80;94.80
9837;DHT22;4957;51.412;6.724;2023-03-01T09:21:20;2.00;94.50
9837;DHT22;4957;51.412;6.724;2023-03-01T09:23:47;2.10;94.30
9837;DHT22;4957;51.412;6.724;2023-03-01T09:26:19;2.20;94.10
9837;DHT22;4957;51.412;6.724;2023-03-01T09:28:45;2.20;94.10
9837;DHT22;4957;51.412;6.724;2023-03-01T09:31:12;2.30;94.10
9837;DHT22;4957;51.412;6.724;2023-03-01T09:33:38;2.30;94.10
9837;DHT22;4957;51.412;6.724;2023-03-01T09:36:11;2.40;94.20
9837;DHT22;4957;51.412;6.724;2023-03-01T09:38:36;2.50;94.20
9837;DHT22;4957;51.412;6.724;2023-03-01T09:41:08;2.60;93.90
9837;DHT22;4957;51.412;6.724;2023-03-01T09:43:53;2.80;93.50
9837;DHT22;4957;51.412;6.724;2023-03-01T09:46:23;3.00;93.50
9837;DHT22;4957;51.412;6.724;2023-03-01T09:48:56;3.10;93.00
9837;DHT22;4957;51.412;6.724;2023-03-01T09:51:40;3.10;92.90
9837;DHT22;4957;51.412;6.724;2023-03-01T09:54:09;3.20;92.70
9837;DHT22;4957;51.412;6.724;2023-03-01T10:04:49;4.30;90.10
9837;DHT22;4957;51.412;6.724;2023-03-01T10:07:30;4.40;90.20
9837;DHT22;4957;51.412;6.724;2023-03-01T10:09:58;4.40;90.20
9837;DHT22;4957;51.412;6.724;2023-03-01T10:12:30;4.40;90.30
9837;DHT22;4957;51.412;6.724;2023-03-01T10:17:37;4.50;89.60
9837;DHT22;4957;51.412;6.724;2023-03-01T10:23:08;4.60;90.00
9837;DHT22;4957;51.412;6.724;2023-03-01T10:28:29;4.70;89.70
9837;DHT22;4957;51.412;6.724;2023-03-01T10:30:58;4.80;89.60
9837;DHT22;4957;51.412;6.724;2023-03-01T10:33:30;4.90;89.20
9837;DHT22;4957;51.412;6.724;2023-03-01T10:35:56;5.00;89.20
9837;DHT22;4957;51.412;6.724;2023-03-01T10:38:22;5.10;88.90
9837;DHT22;4957;51.412;6.724;2023-03-01T10:43:19;5.30;86.30
9837;DHT22;4957;51.412;6.724;2023-03-01T10:45:45;5.40;86.10
9837;DHT22;4957;51.412;6.724;2023-03-01T10:48:20;5.50;85.40
9837;DHT22;4957;51.412;6.724;2023-03-01T10:53:42;5.80;82.10
9837;DHT22;4957;51.412;6.724;2023-03-01T10:56:10;5.90;81.30
9837;DHT22;4957;51.412;6.724;2023-03-01T10:58:40;6.00;81.10
9837;DHT22;4957;51.412;6.724;2023-03-01T11:06:34;6.40;76.70
9837;DHT22;4957;51.412;6.724;2023-03-01T11:09:20;6.40;77.20
9837;DHT22;4957;51.412;6.724;2023-03-01T11:11:46;6.40;75.30
9837;DHT22;4957;51.412;6.724;2023-03-01T11:14:30;6.50;75.10
9837;DHT22;4957;51.412;6.724;2023-03-01T11:17:14;6.50;75.10
9837;DHT22;4957;51.412;6.724;2023-03-01T11:19:40;6.60;72.40
9837;DHT22;4957;51.412;6.724;2023-03-01T11:22:16;6.70;71.80
9837;DHT22;4957;51.412;6.724;2023-03-01T11:24:52;6.70;72.60
9837;DHT22;4957;51.412;6.724;2023-03-01T11:27:22;6.60;74.40
9837;DHT22;4957;51.412;6.724;2023-03-01T11:29:57;6.60;73.90
9837;DHT22;4957;51.412;6.724;2023-03-01T11:32:28;6.60;73.20
9837;DHT22;4957;51.412;6.724;2023-03-01T11:35:04;6.50;72.70
9837;DHT22;4957;51.412;6.724;2023-03-01T11:37:40;6.50;72.50
9837;DHT22;4957;51.412;6.724;2023-03-01T11:40:16;6.50;72.50
9837;DHT22;4957;51.412;6.724;2023-03-01T11:45:24;6.60;72.70
9837;DHT22;4957;51.412;6.724;2023-03-01T11:48:10;6.60;72.50
9837;DHT22;4957;51.412;6.724;2023-03-01T11:50:44;6.70;72.50
9837;DHT22;4957;51.412;6.724;2023-03-01T11:56:00;6.80;71.20
9837;DHT22;4957;51.412;6.724;2023-03-01T12:13:27;7.20;68.70
9837;DHT22;4957;51.412;6.724;2023-03-01T12:21:53;7.20;68.60
9837;DHT22;4957;51.412;6.724;2023-03-01T12:30:16;7.20;68.40
9837;DHT22;4957;51.412;6.724;2023-03-01T12:33:12;7.20;67.50
9837;DHT22;4957;51.412;6.724;2023-03-01T12:54:55;7.40;67.50
9837;DHT22;4957;51.412;6.724;2023-03-01T12:57:31;7.40;67.40
9837;DHT22;4957;51.412;6.724;2023-03-01T13:00:21;7.50;67.80
9837;DHT22;4957;51.412;6.724;2023-03-01T13:08:48;7.60;65.70
9837;DHT22;4957;51.412;6.724;2023-03-01T13:11:20;7.70;67.70
9837;DHT22;4957;51.412;6.724;2023-03-01T13:13:47;7.80;66.10
9837;DHT22;4957;51.412;6.724;2023-03-01T13:19:16;7.90;64.60
9837;DHT22;4957;51.412;6.724;2023-03-01T13:21:43;8.00;63.30
9837;DHT22;4957;51.412;6.724;2023-03-01T13:24:42;8.00;65.20
9837;DHT22;4957;51.412;6.724;2023-03-01T13:29:52;8.00;63.80
9837;DHT22;4957;51.412;6.724;2023-03-01T13:32:36;8.10;63.50
9837;DHT22;4957;51.412;6.724;2023-03-01T13:37:40;8.10;63.60
9837;DHT22;4957;51.412;6.724;2023-03-01T13:42:55;8.10;62.50
9837;DHT22;4957;51.412;6.724;2023-03-01T13:45:36;8.20;62.50
9837;DHT22;4957;51.412;6.724;2023-03-01T13:48:30;8.20;62.00
9837;DHT22;4957;51.412;6.724;2023-03-01T13:51:02;8.20;60.70
9837;DHT22;4957;51.412;6.724;2023-03-01T13:53:35;8.20;61.50
9837;DHT22;4957;51.412;6.724;2023-03-01T13:56:12;8.20;60.50
9837;DHT22;4957;51.412;6.724;2023-03-01T13:59:06;8.30;59.40
9837;DHT22;4957;51.412;6.724;2023-03-01T14:01:37;8.40;58.90
9837;DHT22;4957;51.412;6.724;2023-03-01T14:04:17;8.40;58.90
9837;DHT22;4957;51.412;6.724;2023-03-01T14:06:43;8.40;58.30
9837;DHT22;4957;51.412;6.724;2023-03-01T14:09:27;8.40;59.70
9837;DHT22;4957;51.412;6.724;2023-03-01T14:12:06;8.40;57.60
9837;DHT22;4957;51.412;6.724;2023-03-01T14:20:24;8.30;57.20
9837;DHT22;4957;51.412;6.724;2023-03-01T14:22:54;8.40;56.40
9837;DHT22;4957;51.412;6.724;2023-03-01T14:25:31;8.40;56.30
9837;DHT22;4957;51.412;6.724;2023-03-01T14:28:21;8.40;56.40
9837;DHT22;4957;51.412;6.724;2023-03-01T14:30:51;8.30;55.20
9837;DHT22;4957;51.412;6.724;2023-03-01T14:33:23;8.30;55.90
9837;DHT22;4957;51.412;6.724;2023-03-01T14:36:04;8.30;55.90
9837;DHT22;4957;51.412;6.724;2023-03-01T14:40:59;8.20;58.00
9837;DHT22;4957;51.412;6.724;2023-03-01T14:43:27;8.20;54.70
9837;DHT22;4957;51.412;6.724;2023-03-01T14:45:54;8.30;55.70
9837;DHT22;4957;51.412;6.724;2023-03-01T14:48:20;8.20;56.30
9837;DHT22;4957;51.412;6.724;2023-03-01T14:50:46;8.20;55.40
9837;DHT22;4957;51.412;6.724;2023-03-01T14:55:46;8.20;56.40
9837;DHT22;4957;51.412;6.724;2023-03-01T14:58:14;8.20;55.30
9837;DHT22;4957;51.412;6.724;2023-03-01T15:00:51;8.10;55.80
9837;DHT22;4957;51.412;6.724;2023-03-01T15:03:30;8.10;55.40
9837;DHT22;4957;51.412;6.724;2023-03-01T15:05:57;8.10;55.20
9837;DHT22;4957;51.412;6.724;2023-03-01T15:08:24;8.00;56.90
9837;DHT22;4957;51.412;6.724;2023-03-01T15:13:28;8.00;55.30
9837;DHT22;4957;51.412;6.724;2023-03-01T15:16:23;7.90;56.60
9837;DHT22;4957;51.412;6.724;2023-03-01T15:18:56;7.90;56.50
9837;DHT22;4957;51.412;6.724;2023-03-01T15:21:24;7.90;57.10
9837;DHT22;4957;51.412;6.724;2023-03-01T15:23:53;7.90;57.90
9837;DHT22;4957;51.412;6.724;2023-03-01T15:26:43;7.80;58.20
9837;DHT22;4957;51.412;6.724;2023-03-01T15:29:18;7.80;57.50
9837;DHT22;4957;51.412;6.724;2023-03-01T15:31:55;7.80;57.00
9837;DHT22;4957;51.412;6.724;2023-03-01T15:34:24;7.80;57.50
9837;DHT22;4957;51.412;6.724;2023-03-01T15:36:53;7.70;57.20
9837;DHT22;4957;51.412;6.724;2023-03-01T15:39:41;7.70;56.80
9837;DHT22;4957;51.412;6.724;2023-03-01T15:44:40;7.60;57.00
9837;DHT22;4957;51.412;6.724;2023-03-01T15:47:28;7.60;57.10
9837;DHT22;4957;51.412;6.724;2023-03-01T15:49:55;7.60;57.80
9837;DHT22;4957;51.412;6.724;2023-03-01T15:52:40;7.60;58.70
9837;DHT22;4957;51.412;6.724;2023-03-01T15:55:18;7.50;57.50
9837;DHT22;4957;51.412;6.724;2023-03-01T15:57:44;7.50;57.90
9837;DHT22;4957;51.412;6.724;2023-03-01T16:00:12;7.50;59.10
9837;DHT22;4957;51.412;6.724;2023-03-01T16:02:40;7.40;58.70
9837;DHT22;4957;51.412;6.724;2023-03-01T16:05:12;7.40;58.80
9837;DHT22;4957;51.412;6.724;2023-03-01T16:07:40;7.30;57.10
9837;DHT22;4957;51.412;6.724;2023-03-01T16:10:06;7.30;58.30
9837;DHT22;4957;51.412;6.724;2023-03-01T16:12:31;7.30;57.70
9837;DHT22;4957;51.412;6.724;2023-03-01T16:14:57;7.30;58.00
9837;DHT22;4957;51.412;6.724;2023-03-01T16:17:23;7.30;57.90
9837;DHT22;4957;51.412;6.724;2023-03-01T16:19:49;7.20;58.00
9837;DHT22;4957;51.412;6.724;2023-03-01T16:22:14;7.20;57.80
9837;DHT22;4957;51.412;6.724;2023-03-01T16:24:40;7.20;58.80
9837;DHT22;4957;51.412;6.724;2023-03-01T16:27:06;7.20;58.50
9837;DHT22;4957;51.412;6.724;2023-03-01T16:29:32;7.20;59.00
9837;DHT22;4957;51.412;6.724;2023-03-01T16:32:02;7.10;58.50
9837;DHT22;4957;51.412;6.724;2023-03-01T16:34:27;7.10;60.00
9837;DHT22;4957;51.412;6.724;2023-03-01T16:36:53;7.10;58.50
9837;DHT22;4957;51.412;6.724;2023-03-01T16:39:19;7.00;58.70
9837;DHT22;4957;51.412;6.724;2023-03-01T16:41:44;7.00;59.20
9837;DHT22;4957;51.412;6.724;2023-03-01T16:44:10;7.00;59.10
9837;DHT22;4957;51.412;6.724;2023-03-01T16:46:35;6.90;59.40
9837;DHT22;4957;51.412;6.724;2023-03-01T16:49:01;6.90;59.50
9837;DHT22;4957;51.412;6.724;2023-03-01T16:51:28;6.90;59.50
9837;DHT22;4957;51.412;6.724;2023-03-01T16:53:55;6.90;60.30
9837;DHT22;4957;51.412;6.724;2023-03-01T16:56:20;6.80;59.40
9837;DHT22;4957;51.412;6.724;2023-03-01T16:58:48;6.80;60.50
9837;DHT22;4957;51.412;6.724;2023-03-01T17:01:19;6.80;60.80
9837;DHT22;4957;51.412;6.724;2023-03-01T17:03:46;6.80;60.10
9837;DHT22;4957;51.412;6.724;2023-03-01T17:06:14;6.70;60.60
9837;DHT22;4957;51.412;6.724;2023-03-01T17:08:41;6.70;61.00
9837;DHT22;4957;51.412;6.724;2023-03-01T17:11:17;6.70;61.30
9837;DHT22;4957;51.412;6.724;2023-03-01T17:13:43;6.60;61.40
9837;DHT22;4957;51.412;6.724;2023-03-01T17:16:11;6.60;62.10
9837;DHT22;4957;51.412;6.724;2023-03-01T17:18:37;6.60;63.00
9837;DHT22;4957;51.412;6.724;2023-03-01T17:21:04;6.50;62.00
9837;DHT22;4957;51.412;6.724;2023-03-01T17:23:31;6.50;63.50
9837;DHT22;4957;51.412;6.724;2023-03-01T17:25:57;6.50;64.20
9837;DHT22;4957;51.412;6.724;2023-03-01T17:28:27;6.40;63.10
9837;DHT22;4957;51.412;6.724;2023-03-01T17:30:53;6.40;62.90
9837;DHT22;4957;51.412;6.724;2023-03-01T17:33:20;6.30;63.10
9837;DHT22;4957;51.412;6.724;2023-03-01T17:35:46;6.30;63.70
9837;DHT22;4957;51.412;6.724;2023-03-01T17:38:13;6.30;63.60
9837;DHT22;4957;51.412;6.724;2023-03-01T17:40:43;6.30;62.90
9837;DHT22;4957;51.412;6.724;2023-03-01T17:43:13;6.20;63.60
9837;DHT22;4957;51.412;6.724;2023-03-01T17:45:39;6.20;64.20
9837;DHT22;4957;51.412;6.724;2023-03-01T17:48:05;6.10;63.10
9837;DHT22;4957;51.412;6.724;2023-03-01T17:50:31;6.10;63.70
9837;DHT22;4957;51.412;6.724;2023-03-01T17:52:57;6.00;63.90
9837;DHT22;4957;51.412;6.724;2023-03-01T17:55:23;6.00;63.90
9837;DHT22;4957;51.412;6.724;2023-03-01T17:57:49;6.00;64.30
9837;DHT22;4957;51.412;6.724;2023-03-01T18:00:16;5.90;64.10
9837;DHT22;4957;51.412;6.724;2023-03-01T18:02:43;5.90;63.70
9837;DHT22;4957;51.412;6.724;2023-03-01T18:05:09;5.80;65.00
9837;DHT22;4957;51.412;6.724;2023-03-01T18:07:36;5.80;64.70
9837;DHT22;4957;51.412;6.724;2023-03-01T18:10:02;5.80;65.00
9837;DHT22;4957;51.412;6.724;2023-03-01T18:12:28;5.80;65.00
9837;DHT22;4957;51.412;6.724;2023-03-01T18:14:54;5.70;64.90
9837;DHT22;4957;51.412;6.724;2023-03-01T18:17:21;5.70;65.10